This is the latest recevied weather packets stored in our database for station/object KA1CNF. If no packets are shown the sender has not sent any weather packets the latest 10 day(s).
| Time | Temp. | Humidity | Pressure | Rain* | Wind** | Luminosity | Snow |
|---|---|---|---|---|---|---|---|
| 1777842017 | 15.56° C | 43% | 1007.5 hPa | 0 mm | - | 258 W/m² | - |
| 1777840216 | 15.56° C | 41% | 1007.8 hPa | 0 mm | - | 287 W/m² | - |
| 1777813215 | 7.78° C | 63% | 1012.7 hPa | 0 mm | - | 276 W/m² | - |
| 1777804218 | 1.11° C | 92% | 1012.1 hPa | 0 mm | - | 11 W/m² | - |
| 1777802417 | 1.11° C | 91% | 1011.9 hPa | 0 mm | - | 0 W/m² | - |
| 1777798817 | 1.67° C | 89% | 1011.9 hPa | 0 mm | - | 0 W/m² | - |
| 1777793416 | 2.78° C | 84% | 1012.2 hPa | 0 mm | - | 0 W/m² | - |
| 1777789836 | 4.44° C | 81% | 1012.3 hPa | 0 mm | - | 0 W/m² | - |
| 1777786216 | 5° C | 81% | 1012.7 hPa | 0 mm | - | 0 W/m² | - |
| 1777762817 | 7.22° C | 67% | 1012.8 hPa | 0 mm | - | 88 W/m² | - |
| 1777761017 | 7.22° C | 67% | 1012.6 hPa | 0 mm | - | 110 W/m² | - |
| 1777757417 | 6.67° C | 68% | 1012.6 hPa | 0 mm | - | 75 W/m² | - |
| 1777735816 | 8.33° C | 67% | 1012.9 hPa | 0 mm | - | 250 W/m² | - |
| 1777732215 | 8.89° C | 61% | 1013.1 hPa | 0 mm | - | 292 W/m² | - |
| 1777714217 | 2.78° C | 89% | 1012.6 hPa | 0 mm | - | 0 W/m² | - |
| 1777701616 | 5° C | 96% | 1011.7 hPa | 0 mm | - | 0 W/m² | - |
| 1777696216 | 5° C | 95% | 1011.8 hPa | 0 mm | - | 0 W/m² | - |
| 1777685415 | 5.56° C | 93% | 1011.7 hPa | 0 mm | - | 0 W/m² | - |
| 1777671017 | 7.22° C | 82% | 1010.7 hPa | 0 mm | - | 96 W/m² | - |
| 1777644016 | 10.56° C | 62% | 1011.6 hPa | 0 mm | - | 272 W/m² | - |
| 1777640416 | 8.89° C | 70% | 1012 hPa | 0 mm | - | 278 W/m² | - |
| 1777638656 | 7.22° C | 83% | 1012.1 hPa | 0 mm | - | 227 W/m² | - |
| 1777620617 | 3.33° C | 94% | 1011.3 hPa | 0 mm | - | 0 W/m² | - |
| 1777617017 | 3.89° C | 92% | 1011.3 hPa | 0 mm | - | 0 W/m² | - |
| 1777611616 | 4.44° C | 91% | 1011.5 hPa | 0 mm | - | 0 W/m² | - |
* Rain latest hour (hover to see other rain measurements)
** Current wind speed in m/s (hover to see current wind gust speed)